createdAt,value
2022-11-24T00:00:09.331Z,15.95
2022-11-24T00:05:11.984Z,15.89
2022-11-24T00:10:14.660Z,15.84
2022-11-24T00:15:18.781Z,15.69
2022-11-24T00:20:21.452Z,15.61
2022-11-24T00:25:24.099Z,15.54
2022-11-24T00:30:28.190Z,15.38
2022-11-24T00:35:30.846Z,15.37
2022-11-24T00:40:35.088Z,15.27
2022-11-24T00:45:39.464Z,15.23
2022-11-24T00:50:42.310Z,15.24
2022-11-24T00:55:45.016Z,15.17
2022-11-24T01:00:49.307Z,15.15
2022-11-24T01:05:51.968Z,15.12
2022-11-24T01:10:54.709Z,15.02
2022-11-24T01:15:58.836Z,15.01
2022-11-24T01:21:09.869Z,14.93
2022-11-24T01:26:16.027Z,14.88
2022-11-24T01:31:20.087Z,14.89
2022-11-24T01:36:23.371Z,14.81
2022-11-24T01:41:27.219Z,14.77
2022-11-24T01:46:35.267Z,14.75
2022-11-24T01:51:41.646Z,14.71
2022-11-24T01:56:47.294Z,14.68
2022-11-24T02:01:52.530Z,14.69
2022-11-24T02:06:55.887Z,14.67
2022-11-24T02:12:00.005Z,14.60
2022-11-24T02:17:04.050Z,14.55
2022-11-24T02:22:11.540Z,14.51
2022-11-24T02:27:15.576Z,14.45
2022-11-24T02:32:19.428Z,14.48
2022-11-24T02:37:22.075Z,14.44
2022-11-24T02:42:26.391Z,14.44
2022-11-24T02:47:29.284Z,14.44
2022-11-24T02:52:31.983Z,14.44
2022-11-24T02:57:36.099Z,14.44
2022-11-24T03:02:38.789Z,14.41
2022-11-24T03:07:41.645Z,14.39
2022-11-24T03:12:45.745Z,14.36
2022-11-24T03:17:48.391Z,14.34
2022-11-24T03:22:51.495Z,14.28
2022-11-24T03:27:56.736Z,14.29
2022-11-24T03:32:59.397Z,14.24
2022-11-24T03:38:02.129Z,14.23
2022-11-24T03:43:06.320Z,14.19
2022-11-24T03:48:09.017Z,14.16
2022-11-24T03:53:11.832Z,14.14
2022-11-24T03:58:15.831Z,14.10
2022-11-24T04:03:19.146Z,14.11
2022-11-24T04:08:21.820Z,14.09
2022-11-24T04:13:26.985Z,14.04
2022-11-24T04:18:29.633Z,14.06
2022-11-24T04:23:32.239Z,14.04
2022-11-24T04:28:36.612Z,14.05
2022-11-24T04:33:39.266Z,14.06
2022-11-24T04:39:23.378Z,14.02
2022-11-24T04:44:06.095Z,14.03
2022-11-24T04:49:11.553Z,13.99
2022-11-24T04:54:15.091Z,13.97
2022-11-24T04:59:19.792Z,13.98
2022-11-24T05:04:22.734Z,13.98
2022-11-24T05:09:36.912Z,13.97
2022-11-24T05:14:50.130Z,13.95
2022-11-24T05:19:52.791Z,13.92
2022-11-24T05:24:55.473Z,13.92
2022-11-24T05:29:59.560Z,13.92
2022-11-24T05:35:04.457Z,13.91
2022-11-24T05:40:08.032Z,13.90
2022-11-24T05:45:14.328Z,13.86
2022-11-24T05:50:18.556Z,13.86
2022-11-24T05:55:21.294Z,13.85
2022-11-24T06:00:25.355Z,13.83
2022-11-24T06:05:29.022Z,13.84
2022-11-24T06:10:31.974Z,13.79
2022-11-24T06:15:37.518Z,13.79
2022-11-24T06:20:40.143Z,13.78
2022-11-24T06:25:46.149Z,13.77
2022-11-24T06:30:52.774Z,13.74
2022-11-24T06:36:01.416Z,13.72
2022-11-24T06:41:06.245Z,13.75
2022-11-24T06:46:10.675Z,13.71
2022-11-24T06:51:14.315Z,13.72
2022-11-24T06:56:19.940Z,13.70
2022-11-24T07:01:25.695Z,13.69
2022-11-24T07:06:29.185Z,13.67
2022-11-24T07:11:31.850Z,13.65
2022-11-24T07:16:36.748Z,13.66
2022-11-24T07:21:39.477Z,13.74
2022-11-24T07:26:42.147Z,13.68
2022-11-24T07:31:46.745Z,13.66
2022-11-24T07:36:50.076Z,13.68
2022-11-24T10:12:11.179Z,15.70
2022-11-24T10:17:21.360Z,15.94
2022-11-24T10:22:37.755Z,16.20
2022-11-24T10:27:44.830Z,16.43
2022-11-24T10:32:49.328Z,16.58
2022-11-24T10:37:57.421Z,16.72
2022-11-24T10:43:01.712Z,16.80
2022-11-24T10:48:05.117Z,16.89
2022-11-24T10:53:15.878Z,16.96
2022-11-24T10:58:24.735Z,17.01
2022-11-24T11:03:28.747Z,17.01
2022-11-24T11:08:31.999Z,17.11
2022-11-24T11:13:35.949Z,17.23
2022-11-24T11:18:38.533Z,17.38
2022-11-24T11:23:41.594Z,17.41
2022-11-24T11:31:15.626Z,17.43
2022-11-24T11:34:28.514Z,17.47
2022-11-24T11:39:34.755Z,17.44
2022-11-24T11:44:40.582Z,17.39
2022-11-24T11:49:43.316Z,17.39
2022-11-24T11:55:00.704Z,17.49
2022-11-24T12:00:10.476Z,17.64
2022-11-24T12:05:18.937Z,17.75
2022-11-24T12:10:27.051Z,17.78
2022-11-24T12:15:33.703Z,17.80
2022-11-24T12:20:44.904Z,17.80
2022-11-24T12:25:50.937Z,17.76
2022-11-24T12:31:02.868Z,17.71
2022-11-24T12:36:13.151Z,17.74
2022-11-24T12:41:41.573Z,17.60
2022-11-24T12:46:53.521Z,17.48
2022-11-24T12:52:01.119Z,17.54
2022-11-24T12:57:08.317Z,17.70
2022-11-24T13:02:22.455Z,17.79
2022-11-24T13:07:38.788Z,17.84
2022-11-24T13:12:54.856Z,17.82
2022-11-24T13:18:08.680Z,17.64
2022-11-24T13:23:30.340Z,17.88
2022-11-24T13:29:05.763Z,17.81
2022-11-24T13:35:00.939Z,17.79
2022-11-24T13:40:59.871Z,17.75
2022-11-24T13:46:10.892Z,17.62
2022-11-24T13:51:24.398Z,17.68
2022-11-24T13:56:32.382Z,17.86
2022-11-24T14:01:40.804Z,17.85
2022-11-24T14:06:45.533Z,17.91
2022-11-24T14:11:58.344Z,17.97
2022-11-24T14:17:23.090Z,18.06
2022-11-24T14:22:32.211Z,17.94
2022-11-24T14:27:37.532Z,17.95
2022-11-24T14:32:40.377Z,17.95
2022-11-24T14:37:43.162Z,17.84
2022-11-24T14:42:51.608Z,17.70
2022-11-24T14:47:55.539Z,17.63
2022-11-24T14:52:59.143Z,17.50
2022-11-24T14:58:03.148Z,17.42
2022-11-24T15:03:15.947Z,17.31
2022-11-24T15:08:18.880Z,17.27
2022-11-24T15:13:24.435Z,17.22
2022-11-24T15:18:28.887Z,17.12
2022-11-24T15:23:32.013Z,16.99
2022-11-24T15:28:35.959Z,16.93
2022-11-24T15:33:39.233Z,16.86
2022-11-24T15:38:42.303Z,16.71
2022-11-24T15:43:46.282Z,16.65
2022-11-24T15:48:48.871Z,16.52
2022-11-24T15:53:55.787Z,16.45
2022-11-24T15:59:04.867Z,16.33
2022-11-24T16:04:07.655Z,16.28
2022-11-24T16:09:13.932Z,16.19
2022-11-24T16:14:17.914Z,16.08
2022-11-24T16:19:20.515Z,16.04
2022-11-24T16:24:23.120Z,15.92
2022-11-24T16:29:27.038Z,15.85
2022-11-24T16:34:29.630Z,15.81
2022-11-24T16:39:32.248Z,15.72
2022-11-24T16:44:36.402Z,15.72
2022-11-24T16:49:39.612Z,15.67
2022-11-24T16:54:42.258Z,15.88
2022-11-24T16:59:46.919Z,16.16
2022-11-24T17:04:52.159Z,16.39
2022-11-24T17:09:54.811Z,16.61
2022-11-24T17:15:30.286Z,16.76
2022-11-24T17:20:21.771Z,16.99
2022-11-24T17:25:24.385Z,17.13
2022-11-24T17:30:28.342Z,17.24
2022-11-24T17:35:30.933Z,17.32
2022-11-24T17:40:33.619Z,17.39
2022-11-24T17:45:37.649Z,17.38
2022-11-24T17:50:40.267Z,17.38
2022-11-24T17:55:42.936Z,17.39
2022-11-24T18:00:46.947Z,17.33
2022-11-24T18:05:50.088Z,17.26
2022-11-24T18:10:52.688Z,17.24
2022-11-24T18:16:00.393Z,17.30
2022-11-24T18:21:03.888Z,17.32
2022-11-24T18:26:07.479Z,17.37
2022-11-24T18:31:12.990Z,17.37
2022-11-24T18:36:18.077Z,17.33
2022-11-24T18:41:21.058Z,17.31
2022-11-24T18:46:25.159Z,17.30
2022-11-24T18:51:28.007Z,17.35
2022-11-24T18:56:30.664Z,17.33
2022-11-24T19:01:34.838Z,17.37
2022-11-24T19:06:38.568Z,17.29
2022-11-24T19:11:43.098Z,17.23
2022-11-24T19:16:47.803Z,17.30
2022-11-24T19:21:50.530Z,17.42
2022-11-24T19:26:54.180Z,17.44
2022-11-24T19:31:58.204Z,17.45
2022-11-24T19:37:00.848Z,17.46
2022-11-24T19:42:04.692Z,17.40
2022-11-24T19:47:08.696Z,17.39
2022-11-24T19:52:11.406Z,17.32
2022-11-24T19:57:14.137Z,17.31
2022-11-24T20:02:18.239Z,17.36
2022-11-24T20:07:21.041Z,17.43
2022-11-24T20:12:23.768Z,17.42
2022-11-24T20:17:29.944Z,17.48
2022-11-24T20:22:32.694Z,17.41
2022-11-24T20:27:35.425Z,17.38
2022-11-24T20:32:39.581Z,17.30
2022-11-24T20:37:42.268Z,17.33
2022-11-24T20:42:44.942Z,17.25
2022-11-24T20:47:48.970Z,17.26
2022-11-24T20:52:51.602Z,17.40
2022-11-24T20:57:54.240Z,17.42
2022-11-24T21:02:58.463Z,17.40
2022-11-24T21:08:01.115Z,17.40
2022-11-24T21:13:03.823Z,17.34
2022-11-24T21:18:07.893Z,17.38
2022-11-24T21:23:10.962Z,17.29
2022-11-24T21:28:13.894Z,17.24
2022-11-24T21:33:19.680Z,17.26
2022-11-24T21:38:25.240Z,17.23
2022-11-24T21:43:29.543Z,17.19
2022-11-24T21:48:34.285Z,17.17
2022-11-24T21:53:38.520Z,17.08
2022-11-24T21:58:45.728Z,17.12
2022-11-24T22:03:50.074Z,17.01
2022-11-24T22:08:52.835Z,17.00
2022-11-24T22:13:55.576Z,17.02
2022-11-24T22:19:01.016Z,16.98
2022-11-24T22:24:04.065Z,16.90
2022-11-24T22:29:07.648Z,16.81
2022-11-24T22:34:11.699Z,16.78
2022-11-24T22:39:14.695Z,16.74
2022-11-24T22:44:17.451Z,16.68
2022-11-24T22:49:23.513Z,16.54
2022-11-24T22:54:26.217Z,16.40
2022-11-24T22:59:28.918Z,16.45
2022-11-24T23:04:33.235Z,16.28
2022-11-24T23:09:36.151Z,16.29
2022-11-24T23:14:38.835Z,16.24
2022-11-24T23:19:42.881Z,16.20
2022-11-24T23:24:45.619Z,16.14
2022-11-24T23:29:48.292Z,16.07
2022-11-24T23:34:52.306Z,15.99
2022-11-24T23:39:54.993Z,15.91
2022-11-24T23:44:57.778Z,15.83
2022-11-24T23:50:01.837Z,15.83
2022-11-24T23:55:05.182Z,15.75
